Meadowville, Utah
Current Conditions -  °F | °C
As of 4:51 PM on Tuesday 25 Nov 2014 (Local Time) from KLGU Reporting Station
Overcast Overcast  
Wind Chill: 37°   Ceiling: 3500
Heat Index: 43°   Visibility: 10mi
Dew Point: 32°   Wind: 12mph
Humidity: 65%   Direction: 160°SSE
Pressure: 30.26"   Gusts: NA
Location:  41.8508°N, 111.23°W
Report Text: KLGU 252351Z AUTO 16010KT 10SM OVC035 06/00 A3026 RMK AO2 SLP253 60001 T00610000 10061 20022 56005
Loading
Personal Weather Stations






























Interactive Weather Map New forecast layout! Learn more

10-Day Weather Forecast

Advertisements
Track Severe Weather on mobile